• Join FlightAware (Why Join?)
  • Login
  • US Flag 
03:06PM EST


 

Airport Tracker/Info


-or-


 

Live Flight TrackerFlight Track Log ✈ RLK367 ✈ 14-Jul-2013 ✈ NZAA / AKL - NZNS / NSN

Flight Track Log - Related Links

Times and Time Zones

All times are in EDT time to prevent confusion due to time zone crossing. See the RLK367 flight status page for this flight to view local times or setup timezone preferences in your user account.

Time Position Orientation Groundspeed Altitude Reporting Facility
EDT Latitude Longitude Course Direction KTS MPH feet Rate Location/Type
10:51PM -37.0167 174.7833 195° South 81 93  Level New Zealand
10:52PM -37.0685 174.7708 195° South  Level Estimated
10:52PM -37.0333 174.7667 219° Southwest 123 142  Level New Zealand
10:53PM -37.0667 174.7500 202° Southwest 131 151  Level New Zealand
10:54PM -37.1000 174.7333 202° Southwest 131 151  Level New Zealand
10:55PM -37.1500 174.7167 195° South 157 181  Level New Zealand
10:56PM -37.1833 174.7167 180° South 158 182  Level New Zealand
10:57PM -37.2333 174.6833 208° Southwest 174 200  Level New Zealand
10:58PM -37.2833 174.6667 195° South 190 219  Level New Zealand
10:59PM -37.3333 174.6667 180° South 197 227  Level New Zealand
11:00PM -37.4000 174.6333 202° Southwest 206 237  Level New Zealand
11:01PM -37.4500 174.6167 195° South 211 243  Level New Zealand
11:02PM -37.5167 174.6000 191° South 215 247  Level New Zealand
11:03PM -37.5667 174.5833 195° South 220 253  Level New Zealand
11:04PM -37.6333 174.5667 191° South 221 254  Level New Zealand
11:05PM -37.7000 174.5500 191° South 224 258  Level New Zealand
11:06PM -37.7500 174.5167 208° Southwest 225 259  Level New Zealand
11:08PM -37.8167 174.5000 191° South 226 260  Level New Zealand
11:09PM -37.8833 174.4833 191° South 233 268  Level New Zealand
11:10PM -37.9500 174.4500 202° Southwest 255 293  Level New Zealand
11:11PM -38.0167 174.4333 191° South 248 285  Level New Zealand
11:12PM -38.0833 174.4167 191° South 247 284  Level New Zealand
11:13PM -38.1667 174.4000 189° South 265 305  Level New Zealand
11:14PM -38.2333 174.4000 180° South 281 323  Level New Zealand
11:15PM -38.3167 174.3833 189° South 291 335  Level New Zealand
11:16PM -38.4000 174.3667 189° South 283 326  Level New Zealand
11:17PM -38.4833 174.3333 197° South 290 334  Level New Zealand
11:18PM -38.5667 174.3000 197° South 286 329  Level New Zealand
11:19PM -38.6333 174.2833 191° South 278 320  Level New Zealand
11:20PM -38.7167 174.2500 197° South 274 315  Level New Zealand
11:21PM -38.7833 174.2167 201° Southwest 275 316  Level New Zealand
11:22PM -38.8667 174.2000 189° South 274 315  Level New Zealand
11:23PM -38.9333 174.1667 201° Southwest 275 316  Level New Zealand
11:24PM -39.0167 174.1333 197° South 273 314  Level New Zealand
11:25PM -39.0833 174.1167 191° South 273 314  Level New Zealand
11:26PM -39.1667 174.0833 197° South 272 313  Level New Zealand
11:27PM -39.2333 174.0500 201° Southwest 272 313  Level New Zealand
11:28PM -39.3000 174.0333 191° South 271 312  Level New Zealand
11:29PM -39.3833 174.0000 197° South 271 312  Level New Zealand
11:30PM -39.4500 173.9667 201° Southwest 273 314  Level New Zealand
11:31PM -39.5333 173.9500 189° South 273 314  Level New Zealand
11:32PM -39.6000 173.9167 201° Southwest 272 313  Level New Zealand
11:33PM -39.6833 173.8833 197° South 269 310  Level New Zealand
11:34PM -39.7500 173.8667 191° South 266 306  Level New Zealand
11:35PM -39.8333 173.8333 197° South 268 308  Level New Zealand
11:36PM -39.9000 173.8000 201° Southwest 269 310  Level New Zealand
11:37PM -39.9833 173.7667 197° South 271 312  Level New Zealand
11:38PM -40.0500 173.7500 191° South 270 311  Level New Zealand
11:39PM -40.1333 173.7167 197° South 272 313  Level New Zealand
11:40PM -40.2167 173.6833 197° South 292 336  Level New Zealand
11:41PM -40.2833 173.6500 201° Southwest 277 319  Level New Zealand
11:43PM -40.3667 173.6167 197° South 275 316  Level New Zealand
11:44PM -40.4333 173.5833 201° Southwest 261 300  Level New Zealand
11:45PM -40.5000 173.5667 191° South 246 283  Level New Zealand
11:46PM -40.5833 173.5333 197° South 261 300  Level New Zealand
11:47PM -40.6500 173.5000 201° Southwest 261 300  Level New Zealand
11:48PM -40.7167 173.4667 201° Southwest 247 284  Level New Zealand
11:49PM -40.7833 173.4500 191° South 238 274  Level New Zealand
11:50PM -40.8500 173.4167 201° Southwest 238 274  Level New Zealand
11:51PM -40.9167 173.4000 191° South 228 262  Level New Zealand
11:52PM -40.9667 173.3667 207° Southwest 208 239  Level New Zealand
11:53PM -41.0167 173.3500 194° South 201 231  Level New Zealand
11:54PM -41.0667 173.3167 207° Southwest 190 219  Level New Zealand
11:55PM -41.1333 173.3000 191° South 206 237  Level New Zealand